sensor_id;sensor_type;location;lat;lon;timestamp;P1;durP1;ratioP1;P2;durP2;ratioP2
39968;SDS011;25648;47.808;19.004;2022-10-28T00:01:16;32.65;;;18.88;;
39968;SDS011;25648;47.808;19.004;2022-10-28T00:03:48;32.45;;;19.42;;
39968;SDS011;25648;47.808;19.004;2022-10-28T00:06:16;33.08;;;18.80;;
39968;SDS011;25648;47.808;19.004;2022-10-28T00:08:47;33.42;;;21.15;;
39968;SDS011;25648;47.808;19.004;2022-10-28T00:11:15;32.35;;;19.45;;
39968;SDS011;25648;47.808;19.004;2022-10-28T00:13:42;36.78;;;23.25;;
39968;SDS011;25648;47.808;19.004;2022-10-28T00:18:39;33.90;;;19.55;;
39968;SDS011;25648;47.808;19.004;2022-10-28T00:21:07;41.72;;;20.70;;
39968;SDS011;25648;47.808;19.004;2022-10-28T00:23:40;35.05;;;19.27;;
39968;SDS011;25648;47.808;19.004;2022-10-28T00:26:06;37.00;;;21.08;;
39968;SDS011;25648;47.808;19.004;2022-10-28T00:28:44;40.92;;;22.02;;
39968;SDS011;25648;47.808;19.004;2022-10-28T00:31:13;39.17;;;21.98;;
39968;SDS011;25648;47.808;19.004;2022-10-28T00:33:40;39.70;;;20.70;;
39968;SDS011;25648;47.808;19.004;2022-10-28T00:36:09;40.45;;;21.40;;
39968;SDS011;25648;47.808;19.004;2022-10-28T00:38:37;33.88;;;19.58;;
39968;SDS011;25648;47.808;19.004;2022-10-28T00:41:04;34.28;;;19.25;;
39968;SDS011;25648;47.808;19.004;2022-10-28T00:43:44;36.38;;;19.95;;
39968;SDS011;25648;47.808;19.004;2022-10-28T00:46:33;35.60;;;19.50;;
39968;SDS011;25648;47.808;19.004;2022-10-28T00:49:02;39.95;;;21.20;;
39968;SDS011;25648;47.808;19.004;2022-10-28T00:51:51;44.05;;;22.80;;
39968;SDS011;25648;47.808;19.004;2022-10-28T00:54:20;39.45;;;22.42;;
39968;SDS011;25648;47.808;19.004;2022-10-28T00:56:48;47.30;;;23.63;;
39968;SDS011;25648;47.808;19.004;2022-10-28T00:59:35;43.22;;;22.60;;
39968;SDS011;25648;47.808;19.004;2022-10-28T01:02:04;40.15;;;22.35;;
39968;SDS011;25648;47.808;19.004;2022-10-28T01:04:30;41.72;;;21.58;;
39968;SDS011;25648;47.808;19.004;2022-10-28T01:06:56;41.47;;;22.00;;
39968;SDS011;25648;47.808;19.004;2022-10-28T01:09:23;40.17;;;22.30;;
39968;SDS011;25648;47.808;19.004;2022-10-28T01:11:59;38.28;;;20.17;;
39968;SDS011;25648;47.808;19.004;2022-10-28T01:23:11;33.05;;;19.60;;
39968;SDS011;25648;47.808;19.004;2022-10-28T01:31:44;32.28;;;18.13;;
39968;SDS011;25648;47.808;19.004;2022-10-28T01:39:54;29.83;;;17.77;;
39968;SDS011;25648;47.808;19.004;2022-10-28T01:42:39;33.78;;;18.98;;
39968;SDS011;25648;47.808;19.004;2022-10-28T01:45:45;37.30;;;19.75;;
39968;SDS011;25648;47.808;19.004;2022-10-28T01:51:10;35.85;;;19.27;;
39968;SDS011;25648;47.808;19.004;2022-10-28T01:53:43;30.95;;;18.52;;
39968;SDS011;25648;47.808;19.004;2022-10-28T01:56:12;30.25;;;17.33;;
39968;SDS011;25648;47.808;19.004;2022-10-28T01:58:43;31.95;;;17.60;;
39968;SDS011;25648;47.808;19.004;2022-10-28T02:01:09;31.90;;;17.13;;
39968;SDS011;25648;47.808;19.004;2022-10-28T02:03:36;30.80;;;16.85;;
39968;SDS011;25648;47.808;19.004;2022-10-28T02:06:02;29.50;;;16.45;;
39968;SDS011;25648;47.808;19.004;2022-10-28T02:16:21;34.75;;;17.92;;
39968;SDS011;25648;47.808;19.004;2022-10-28T02:24:55;36.90;;;18.27;;
39968;SDS011;25648;47.808;19.004;2022-10-28T02:27:46;28.25;;;16.88;;
39968;SDS011;25648;47.808;19.004;2022-10-28T02:30:27;30.88;;;17.75;;
39968;SDS011;25648;47.808;19.004;2022-10-28T02:32:59;35.15;;;18.52;;
39968;SDS011;25648;47.808;19.004;2022-10-28T02:35:38;30.42;;;17.88;;
39968;SDS011;25648;47.808;19.004;2022-10-28T02:38:11;33.80;;;17.95;;
39968;SDS011;25648;47.808;19.004;2022-10-28T02:40:43;34.72;;;17.85;;
39968;SDS011;25648;47.808;19.004;2022-10-28T02:43:14;36.58;;;19.70;;
39968;SDS011;25648;47.808;19.004;2022-10-28T02:45:42;39.42;;;20.10;;
39968;SDS011;25648;47.808;19.004;2022-10-28T02:48:18;38.97;;;19.63;;
39968;SDS011;25648;47.808;19.004;2022-10-28T02:50:51;35.90;;;19.20;;
39968;SDS011;25648;47.808;19.004;2022-10-28T02:53:31;31.02;;;18.00;;
39968;SDS011;25648;47.808;19.004;2022-10-28T02:56:03;36.20;;;19.02;;
39968;SDS011;25648;47.808;19.004;2022-10-28T02:58:38;32.40;;;18.80;;
39968;SDS011;25648;47.808;19.004;2022-10-28T03:01:05;38.25;;;19.90;;
39968;SDS011;25648;47.808;19.004;2022-10-28T03:03:31;39.53;;;20.73;;
39968;SDS011;25648;47.808;19.004;2022-10-28T03:05:57;34.35;;;18.67;;
39968;SDS011;25648;47.808;19.004;2022-10-28T03:08:23;34.10;;;18.83;;
39968;SDS011;25648;47.808;19.004;2022-10-28T03:10:49;36.30;;;19.40;;
39968;SDS011;25648;47.808;19.004;2022-10-28T03:13:15;45.83;;;21.10;;
39968;SDS011;25648;47.808;19.004;2022-10-28T03:15:40;41.45;;;20.50;;
39968;SDS011;25648;47.808;19.004;2022-10-28T03:18:06;37.10;;;18.30;;
39968;SDS011;25648;47.808;19.004;2022-10-28T03:20:32;42.22;;;20.42;;
39968;SDS011;25648;47.808;19.004;2022-10-28T03:22:58;41.85;;;20.50;;
39968;SDS011;25648;47.808;19.004;2022-10-28T03:25:23;41.13;;;20.10;;
39968;SDS011;25648;47.808;19.004;2022-10-28T03:27:49;40.22;;;20.02;;
39968;SDS011;25648;47.808;19.004;2022-10-28T03:30:15;40.65;;;19.80;;
39968;SDS011;25648;47.808;19.004;2022-10-28T03:32:42;42.83;;;20.23;;
39968;SDS011;25648;47.808;19.004;2022-10-28T03:35:08;44.88;;;22.13;;
39968;SDS011;25648;47.808;19.004;2022-10-28T03:37:34;43.78;;;21.25;;
39968;SDS011;25648;47.808;19.004;2022-10-28T03:40:00;45.83;;;22.60;;
39968;SDS011;25648;47.808;19.004;2022-10-28T03:42:27;48.28;;;22.23;;
39968;SDS011;25648;47.808;19.004;2022-10-28T03:44:53;45.38;;;21.55;;
39968;SDS011;25648;47.808;19.004;2022-10-28T03:47:18;38.85;;;19.40;;
39968;SDS011;25648;47.808;19.004;2022-10-28T03:49:44;36.35;;;18.00;;
39968;SDS011;25648;47.808;19.004;2022-10-28T03:52:10;34.30;;;17.58;;
39968;SDS011;25648;47.808;19.004;2022-10-28T03:54:36;34.75;;;17.55;;
39968;SDS011;25648;47.808;19.004;2022-10-28T03:57:02;36.90;;;17.52;;
39968;SDS011;25648;47.808;19.004;2022-10-28T03:59:27;37.70;;;17.35;;
39968;SDS011;25648;47.808;19.004;2022-10-28T04:01:53;32.35;;;16.20;;
39968;SDS011;25648;47.808;19.004;2022-10-28T04:04:18;30.02;;;15.80;;
39968;SDS011;25648;47.808;19.004;2022-10-28T04:06:44;31.48;;;15.95;;
39968;SDS011;25648;47.808;19.004;2022-10-28T04:09:10;35.92;;;16.75;;
39968;SDS011;25648;47.808;19.004;2022-10-28T04:11:35;36.85;;;17.25;;
39968;SDS011;25648;47.808;19.004;2022-10-28T04:14:01;38.45;;;19.42;;
39968;SDS011;25648;47.808;19.004;2022-10-28T04:16:27;44.17;;;20.85;;
39968;SDS011;25648;47.808;19.004;2022-10-28T04:18:52;35.75;;;19.30;;
39968;SDS011;25648;47.808;19.004;2022-10-28T04:21:18;40.25;;;21.00;;
39968;SDS011;25648;47.808;19.004;2022-10-28T04:23:43;43.80;;;19.88;;
39968;SDS011;25648;47.808;19.004;2022-10-28T04:26:09;45.50;;;21.30;;
39968;SDS011;25648;47.808;19.004;2022-10-28T04:28:35;33.55;;;18.67;;
39968;SDS011;25648;47.808;19.004;2022-10-28T04:31:00;37.55;;;19.02;;
39968;SDS011;25648;47.808;19.004;2022-10-28T04:33:27;36.33;;;19.65;;
39968;SDS011;25648;47.808;19.004;2022-10-28T04:35:53;36.88;;;18.83;;
39968;SDS011;25648;47.808;19.004;2022-10-28T04:38:18;38.90;;;19.27;;
39968;SDS011;25648;47.808;19.004;2022-10-28T04:40:47;37.95;;;19.23;;
39968;SDS011;25648;47.808;19.004;2022-10-28T04:43:13;37.83;;;19.13;;
39968;SDS011;25648;47.808;19.004;2022-10-28T04:45:40;39.97;;;19.08;;
39968;SDS011;25648;47.808;19.004;2022-10-28T04:48:07;37.65;;;19.20;;
39968;SDS011;25648;47.808;19.004;2022-10-28T04:50:34;34.33;;;17.38;;
39968;SDS011;25648;47.808;19.004;2022-10-28T04:53:00;33.38;;;17.38;;
39968;SDS011;25648;47.808;19.004;2022-10-28T04:55:26;36.28;;;18.50;;
39968;SDS011;25648;47.808;19.004;2022-10-28T04:57:55;41.72;;;21.13;;
39968;SDS011;25648;47.808;19.004;2022-10-28T05:02:48;47.25;;;20.55;;
39968;SDS011;25648;47.808;19.004;2022-10-28T05:05:14;38.95;;;19.52;;
39968;SDS011;25648;47.808;19.004;2022-10-28T05:07:40;40.00;;;19.30;;
39968;SDS011;25648;47.808;19.004;2022-10-28T05:10:06;40.63;;;20.65;;
39968;SDS011;25648;47.808;19.004;2022-10-28T05:12:32;47.13;;;22.70;;
39968;SDS011;25648;47.808;19.004;2022-10-28T05:14:58;51.75;;;22.80;;
39968;SDS011;25648;47.808;19.004;2022-10-28T05:17:23;52.77;;;23.37;;
39968;SDS011;25648;47.808;19.004;2022-10-28T05:19:49;53.50;;;24.70;;
39968;SDS011;25648;47.808;19.004;2022-10-28T05:22:15;45.42;;;22.23;;
39968;SDS011;25648;47.808;19.004;2022-10-28T05:24:41;43.75;;;22.70;;
39968;SDS011;25648;47.808;19.004;2022-10-28T05:27:07;47.55;;;22.30;;
39968;SDS011;25648;47.808;19.004;2022-10-28T05:29:34;50.75;;;22.90;;
39968;SDS011;25648;47.808;19.004;2022-10-28T05:31:59;55.95;;;23.77;;
39968;SDS011;25648;47.808;19.004;2022-10-28T05:34:25;51.95;;;23.52;;
39968;SDS011;25648;47.808;19.004;2022-10-28T05:36:51;55.30;;;22.65;;
39968;SDS011;25648;47.808;19.004;2022-10-28T05:39:16;60.38;;;24.55;;
39968;SDS011;25648;47.808;19.004;2022-10-28T05:41:42;50.35;;;22.88;;
39968;SDS011;25648;47.808;19.004;2022-10-28T05:44:08;62.80;;;24.25;;
39968;SDS011;25648;47.808;19.004;2022-10-28T05:46:33;47.47;;;21.20;;
39968;SDS011;25648;47.808;19.004;2022-10-28T05:48:59;59.45;;;23.77;;
39968;SDS011;25648;47.808;19.004;2022-10-28T05:51:25;55.53;;;23.75;;
39968;SDS011;25648;47.808;19.004;2022-10-28T05:53:50;59.72;;;23.90;;
39968;SDS011;25648;47.808;19.004;2022-10-28T05:56:16;65.68;;;24.05;;
39968;SDS011;25648;47.808;19.004;2022-10-28T05:58:42;48.05;;;22.42;;
39968;SDS011;25648;47.808;19.004;2022-10-28T06:01:08;52.22;;;23.00;;
39968;SDS011;25648;47.808;19.004;2022-10-28T06:03:34;54.22;;;21.67;;
39968;SDS011;25648;47.808;19.004;2022-10-28T06:06:00;53.22;;;21.30;;
39968;SDS011;25648;47.808;19.004;2022-10-28T06:08:25;56.08;;;22.48;;
39968;SDS011;25648;47.808;19.004;2022-10-28T06:10:52;56.90;;;21.85;;
39968;SDS011;25648;47.808;19.004;2022-10-28T06:13:18;55.42;;;21.55;;
39968;SDS011;25648;47.808;19.004;2022-10-28T06:15:49;48.30;;;20.88;;
39968;SDS011;25648;47.808;19.004;2022-10-28T06:18:19;65.60;;;22.13;;
39968;SDS011;25648;47.808;19.004;2022-10-28T06:20:55;49.58;;;21.23;;
39968;SDS011;25648;47.808;19.004;2022-10-28T06:23:22;48.88;;;20.30;;
39968;SDS011;25648;47.808;19.004;2022-10-28T06:25:49;45.38;;;19.75;;
39968;SDS011;25648;47.808;19.004;2022-10-28T06:28:16;55.15;;;21.77;;
39968;SDS011;25648;47.808;19.004;2022-10-28T06:30:42;49.00;;;21.33;;
39968;SDS011;25648;47.808;19.004;2022-10-28T06:33:07;52.55;;;21.10;;
39968;SDS011;25648;47.808;19.004;2022-10-28T06:35:33;45.22;;;19.77;;
39968;SDS011;25648;47.808;19.004;2022-10-28T06:37:59;52.97;;;19.95;;
39968;SDS011;25648;47.808;19.004;2022-10-28T06:40:25;40.25;;;18.20;;
39968;SDS011;25648;47.808;19.004;2022-10-28T06:43:01;50.38;;;19.85;;
39968;SDS011;25648;47.808;19.004;2022-10-28T06:45:30;42.13;;;17.85;;
39968;SDS011;25648;47.808;19.004;2022-10-28T06:47:58;37.08;;;16.95;;
39968;SDS011;25648;47.808;19.004;2022-10-28T06:50:25;39.63;;;17.83;;
39968;SDS011;25648;47.808;19.004;2022-10-28T06:52:51;38.03;;;16.70;;
39968;SDS011;25648;47.808;19.004;2022-10-28T06:55:18;42.78;;;17.73;;
39968;SDS011;25648;47.808;19.004;2022-10-28T06:57:44;44.08;;;17.25;;
39968;SDS011;25648;47.808;19.004;2022-10-28T07:00:10;35.95;;;16.30;;
39968;SDS011;25648;47.808;19.004;2022-10-28T07:02:36;40.63;;;16.23;;
39968;SDS011;25648;47.808;19.004;2022-10-28T07:05:02;37.03;;;15.35;;
39968;SDS011;25648;47.808;19.004;2022-10-28T07:07:27;40.05;;;17.33;;
39968;SDS011;25648;47.808;19.004;2022-10-28T07:09:53;42.85;;;17.98;;
39968;SDS011;25648;47.808;19.004;2022-10-28T07:12:19;37.80;;;16.15;;
39968;SDS011;25648;47.808;19.004;2022-10-28T07:14:44;38.50;;;16.35;;
39968;SDS011;25648;47.808;19.004;2022-10-28T07:17:10;40.75;;;16.45;;
39968;SDS011;25648;47.808;19.004;2022-10-28T07:19:36;36.80;;;15.68;;
39968;SDS011;25648;47.808;19.004;2022-10-28T07:22:01;37.80;;;15.43;;
39968;SDS011;25648;47.808;19.004;2022-10-28T07:24:27;32.60;;;14.85;;
39968;SDS011;25648;47.808;19.004;2022-10-28T07:26:52;28.45;;;13.63;;
39968;SDS011;25648;47.808;19.004;2022-10-28T07:29:18;31.88;;;14.55;;
39968;SDS011;25648;47.808;19.004;2022-10-28T07:31:44;29.42;;;14.35;;
39968;SDS011;25648;47.808;19.004;2022-10-28T07:34:10;33.05;;;14.75;;
39968;SDS011;25648;47.808;19.004;2022-10-28T07:36:35;35.13;;;15.15;;
39968;SDS011;25648;47.808;19.004;2022-10-28T07:39:01;29.80;;;14.68;;
39968;SDS011;25648;47.808;19.004;2022-10-28T07:41:27;32.47;;;15.10;;
39968;SDS011;25648;47.808;19.004;2022-10-28T07:43:53;26.23;;;12.80;;
39968;SDS011;25648;47.808;19.004;2022-10-28T07:46:18;29.40;;;13.82;;
39968;SDS011;25648;47.808;19.004;2022-10-28T07:48:44;30.55;;;14.35;;
39968;SDS011;25648;47.808;19.004;2022-10-28T07:51:11;25.92;;;13.43;;
39968;SDS011;25648;47.808;19.004;2022-10-28T07:53:38;33.65;;;15.68;;
39968;SDS011;25648;47.808;19.004;2022-10-28T07:56:06;43.63;;;19.83;;
39968;SDS011;25648;47.808;19.004;2022-10-28T07:58:34;49.40;;;22.02;;
39968;SDS011;25648;47.808;19.004;2022-10-28T08:01:01;53.75;;;25.10;;
39968;SDS011;25648;47.808;19.004;2022-10-28T08:03:28;41.45;;;19.20;;
39968;SDS011;25648;47.808;19.004;2022-10-28T08:06:00;32.35;;;15.32;;
39968;SDS011;25648;47.808;19.004;2022-10-28T08:08:31;33.10;;;15.38;;
39968;SDS011;25648;47.808;19.004;2022-10-28T08:10:56;35.53;;;15.55;;
39968;SDS011;25648;47.808;19.004;2022-10-28T08:13:22;36.55;;;16.95;;
39968;SDS011;25648;47.808;19.004;2022-10-28T08:15:54;46.17;;;20.98;;
39968;SDS011;25648;47.808;19.004;2022-10-28T08:18:20;41.10;;;20.02;;
39968;SDS011;25648;47.808;19.004;2022-10-28T08:20:46;45.83;;;19.70;;
39968;SDS011;25648;47.808;19.004;2022-10-28T08:23:13;39.33;;;16.10;;
39968;SDS011;25648;47.808;19.004;2022-10-28T08:25:46;30.67;;;14.40;;
39968;SDS011;25648;47.808;19.004;2022-10-28T08:28:15;32.63;;;15.90;;
39968;SDS011;25648;47.808;19.004;2022-10-28T08:30:41;33.75;;;17.17;;
39968;SDS011;25648;47.808;19.004;2022-10-28T08:33:07;34.33;;;15.55;;
39968;SDS011;25648;47.808;19.004;2022-10-28T08:35:33;43.75;;;17.70;;
39968;SDS011;25648;47.808;19.004;2022-10-28T08:38:02;44.38;;;18.40;;
39968;SDS011;25648;47.808;19.004;2022-10-28T08:40:34;39.47;;;17.85;;
39968;SDS011;25648;47.808;19.004;2022-10-28T08:43:13;42.38;;;20.77;;
39968;SDS011;25648;47.808;19.004;2022-10-28T08:48:46;34.85;;;16.85;;
39968;SDS011;25648;47.808;19.004;2022-10-28T08:51:16;31.70;;;15.98;;
39968;SDS011;25648;47.808;19.004;2022-10-28T08:53:53;35.45;;;15.60;;
39968;SDS011;25648;47.808;19.004;2022-10-28T08:56:30;36.88;;;16.80;;
39968;SDS011;25648;47.808;19.004;2022-10-28T08:59:01;30.60;;;14.95;;
39968;SDS011;25648;47.808;19.004;2022-10-28T09:01:47;35.90;;;15.85;;
39968;SDS011;25648;47.808;19.004;2022-10-28T09:06:48;30.83;;;16.38;;
39968;SDS011;25648;47.808;19.004;2022-10-28T09:09:16;29.45;;;15.57;;
39968;SDS011;25648;47.808;19.004;2022-10-28T09:17:18;34.42;;;15.32;;
39968;SDS011;25648;47.808;19.004;2022-10-28T09:19:51;35.28;;;17.48;;
39968;SDS011;25648;47.808;19.004;2022-10-28T09:24:58;30.83;;;15.13;;
39968;SDS011;25648;47.808;19.004;2022-10-28T09:27:30;37.00;;;16.05;;
39968;SDS011;25648;47.808;19.004;2022-10-28T09:35:50;30.77;;;14.93;;
39968;SDS011;25648;47.808;19.004;2022-10-28T09:38:26;34.95;;;16.08;;
39968;SDS011;25648;47.808;19.004;2022-10-28T09:43:47;30.65;;;15.30;;
39968;SDS011;25648;47.808;19.004;2022-10-28T09:46:23;30.73;;;14.68;;
39968;SDS011;25648;47.808;19.004;2022-10-28T09:48:52;29.63;;;15.10;;
39968;SDS011;25648;47.808;19.004;2022-10-28T09:53:58;31.58;;;14.82;;
39968;SDS011;25648;47.808;19.004;2022-10-28T09:56:25;31.00;;;14.23;;
39968;SDS011;25648;47.808;19.004;2022-10-28T09:58:53;33.67;;;16.13;;
39968;SDS011;25648;47.808;19.004;2022-10-28T10:01:21;28.10;;;15.50;;
39968;SDS011;25648;47.808;19.004;2022-10-28T10:03:47;34.10;;;16.45;;
39968;SDS011;25648;47.808;19.004;2022-10-28T10:06:18;31.65;;;16.33;;
39968;SDS011;25648;47.808;19.004;2022-10-28T10:08:56;37.08;;;17.02;;
39968;SDS011;25648;47.808;19.004;2022-10-28T10:11:26;31.10;;;16.52;;
39968;SDS011;25648;47.808;19.004;2022-10-28T10:14:11;32.80;;;16.13;;
39968;SDS011;25648;47.808;19.004;2022-10-28T10:16:48;31.73;;;15.23;;
39968;SDS011;25648;47.808;19.004;2022-10-28T10:19:20;26.92;;;15.75;;
39968;SDS011;25648;47.808;19.004;2022-10-28T10:21:47;31.73;;;16.30;;
39968;SDS011;25648;47.808;19.004;2022-10-28T10:24:24;39.47;;;16.88;;
39968;SDS011;25648;47.808;19.004;2022-10-28T10:26:55;29.63;;;15.43;;
39968;SDS011;25648;47.808;19.004;2022-10-28T10:29:33;33.08;;;16.88;;
39968;SDS011;25648;47.808;19.004;2022-10-28T10:32:06;29.35;;;15.85;;
39968;SDS011;25648;47.808;19.004;2022-10-28T10:34:54;40.97;;;18.65;;
39968;SDS011;25648;47.808;19.004;2022-10-28T10:37:43;33.58;;;17.15;;
39968;SDS011;25648;47.808;19.004;2022-10-28T10:42:49;30.13;;;16.02;;
39968;SDS011;25648;47.808;19.004;2022-10-28T10:47:41;39.53;;;17.95;;
39968;SDS011;25648;47.808;19.004;2022-10-28T10:50:20;34.78;;;17.30;;
39968;SDS011;25648;47.808;19.004;2022-10-28T10:52:56;36.80;;;17.23;;
39968;SDS011;25648;47.808;19.004;2022-10-28T10:55:27;37.50;;;18.08;;
39968;SDS011;25648;47.808;19.004;2022-10-28T10:58:03;38.25;;;19.23;;
39968;SDS011;25648;47.808;19.004;2022-10-28T11:00:36;38.72;;;18.85;;
39968;SDS011;25648;47.808;19.004;2022-10-28T11:03:11;41.80;;;18.20;;
39968;SDS011;25648;47.808;19.004;2022-10-28T11:05:51;36.35;;;18.52;;
39968;SDS011;25648;47.808;19.004;2022-10-28T11:11:09;38.88;;;19.23;;
39968;SDS011;25648;47.808;19.004;2022-10-28T11:13:39;47.33;;;22.10;;
39968;SDS011;25648;47.808;19.004;2022-10-28T11:16:06;40.58;;;20.33;;
39968;SDS011;25648;47.808;19.004;2022-10-28T11:18:42;39.03;;;19.33;;
39968;SDS011;25648;47.808;19.004;2022-10-28T11:27:12;43.80;;;24.83;;
39968;SDS011;25648;47.808;19.004;2022-10-28T11:29:43;45.58;;;25.95;;
39968;SDS011;25648;47.808;19.004;2022-10-28T11:37:56;38.88;;;18.85;;
39968;SDS011;25648;47.808;19.004;2022-10-28T11:40:58;37.67;;;19.83;;
39968;SDS011;25648;47.808;19.004;2022-10-28T11:46:11;71.20;;;36.00;;
39968;SDS011;25648;47.808;19.004;2022-10-28T11:53:59;46.75;;;22.60;;
39968;SDS011;25648;47.808;19.004;2022-10-28T11:56:52;44.90;;;21.98;;
39968;SDS011;25648;47.808;19.004;2022-10-28T11:59:45;43.80;;;22.27;;
39968;SDS011;25648;47.808;19.004;2022-10-28T12:10:37;40.95;;;21.65;;
39968;SDS011;25648;47.808;19.004;2022-10-28T12:15:56;44.70;;;24.13;;
39968;SDS011;25648;47.808;19.004;2022-10-28T12:18:37;45.20;;;23.40;;
39968;SDS011;25648;47.808;19.004;2022-10-28T12:23:52;47.67;;;24.70;;
39968;SDS011;25648;47.808;19.004;2022-10-28T12:26:19;46.28;;;25.23;;
39968;SDS011;25648;47.808;19.004;2022-10-28T12:28:52;49.38;;;28.92;;
39968;SDS011;25648;47.808;19.004;2022-10-28T12:31:25;50.63;;;27.77;;
39968;SDS011;25648;47.808;19.004;2022-10-28T12:34:09;43.15;;;24.25;;
39968;SDS011;25648;47.808;19.004;2022-10-28T12:36:51;39.60;;;23.08;;
39968;SDS011;25648;47.808;19.004;2022-10-28T12:39:21;54.08;;;26.48;;
39968;SDS011;25648;47.808;19.004;2022-10-28T12:41:57;44.72;;;24.08;;
39968;SDS011;25648;47.808;19.004;2022-10-28T12:44:27;49.92;;;25.70;;
39968;SDS011;25648;47.808;19.004;2022-10-28T12:52:23;43.85;;;23.80;;
39968;SDS011;25648;47.808;19.004;2022-10-28T12:57:28;49.67;;;25.92;;
39968;SDS011;25648;47.808;19.004;2022-10-28T13:02:40;46.85;;;24.55;;
39968;SDS011;25648;47.808;19.004;2022-10-28T13:05:23;47.78;;;24.77;;
39968;SDS011;25648;47.808;19.004;2022-10-28T13:10:41;46.63;;;24.67;;
39968;SDS011;25648;47.808;19.004;2022-10-28T13:23:32;44.88;;;23.23;;
39968;SDS011;25648;47.808;19.004;2022-10-28T13:26:43;50.35;;;24.08;;
39968;SDS011;25648;47.808;19.004;2022-10-28T13:28:56;48.85;;;25.15;;
39968;SDS011;25648;47.808;19.004;2022-10-28T13:31:38;43.65;;;23.05;;
39968;SDS011;25648;47.808;19.004;2022-10-28T13:34:10;57.78;;;32.10;;
39968;SDS011;25648;47.808;19.004;2022-10-28T13:36:39;63.85;;;30.50;;
39968;SDS011;25648;47.808;19.004;2022-10-28T13:40:04;43.05;;;24.45;;
39968;SDS011;25648;47.808;19.004;2022-10-28T13:44:53;53.70;;;29.75;;
39968;SDS011;25648;47.808;19.004;2022-10-28T13:52:41;45.83;;;24.85;;
39968;SDS011;25648;47.808;19.004;2022-10-28T13:55:40;44.50;;;23.30;;
39968;SDS011;25648;47.808;19.004;2022-10-28T13:58:18;42.72;;;24.02;;
39968;SDS011;25648;47.808;19.004;2022-10-28T14:00:49;45.58;;;24.42;;
39968;SDS011;25648;47.808;19.004;2022-10-28T14:03:19;45.47;;;24.67;;
39968;SDS011;25648;47.808;19.004;2022-10-28T14:05:57;40.50;;;22.95;;
39968;SDS011;25648;47.808;19.004;2022-10-28T14:08:34;43.58;;;23.05;;
39968;SDS011;25648;47.808;19.004;2022-10-28T14:11:21;43.73;;;22.43;;
39968;SDS011;25648;47.808;19.004;2022-10-28T14:13:51;40.95;;;22.70;;
39968;SDS011;25648;47.808;19.004;2022-10-28T14:16:25;49.53;;;24.27;;
39968;SDS011;25648;47.808;19.004;2022-10-28T14:24:36;45.22;;;23.65;;
39968;SDS011;25648;47.808;19.004;2022-10-28T14:29:46;45.28;;;25.38;;
39968;SDS011;25648;47.808;19.004;2022-10-28T14:40:33;48.35;;;25.48;;
39968;SDS011;25648;47.808;19.004;2022-10-28T14:51:34;49.70;;;25.52;;
39968;SDS011;25648;47.808;19.004;2022-10-28T14:54:05;47.78;;;26.23;;
39968;SDS011;25648;47.808;19.004;2022-10-28T14:56:34;52.63;;;26.85;;
39968;SDS011;25648;47.808;19.004;2022-10-28T14:59:20;52.80;;;25.38;;
39968;SDS011;25648;47.808;19.004;2022-10-28T15:01:53;51.42;;;26.60;;
39968;SDS011;25648;47.808;19.004;2022-10-28T15:04:41;48.55;;;25.73;;
39968;SDS011;25648;47.808;19.004;2022-10-28T15:09:44;48.50;;;24.77;;
39968;SDS011;25648;47.808;19.004;2022-10-28T15:12:17;51.75;;;26.98;;
39968;SDS011;25648;47.808;19.004;2022-10-28T15:14:44;51.13;;;27.88;;
39968;SDS011;25648;47.808;19.004;2022-10-28T15:17:22;50.45;;;28.15;;
39968;SDS011;25648;47.808;19.004;2022-10-28T15:19:51;49.30;;;27.60;;
39968;SDS011;25648;47.808;19.004;2022-10-28T15:22:27;46.30;;;26.27;;
39968;SDS011;25648;47.808;19.004;2022-10-28T15:25:00;61.10;;;40.45;;
39968;SDS011;25648;47.808;19.004;2022-10-28T15:29:57;46.92;;;25.75;;
39968;SDS011;25648;47.808;19.004;2022-10-28T15:32:27;48.83;;;25.90;;
39968;SDS011;25648;47.808;19.004;2022-10-28T15:34:55;48.05;;;25.05;;
39968;SDS011;25648;47.808;19.004;2022-10-28T15:37:22;42.80;;;24.45;;
39968;SDS011;25648;47.808;19.004;2022-10-28T15:39:50;49.13;;;26.42;;
39968;SDS011;25648;47.808;19.004;2022-10-28T15:45:17;49.40;;;25.40;;
39968;SDS011;25648;47.808;19.004;2022-10-28T15:47:54;43.80;;;24.95;;
39968;SDS011;25648;47.808;19.004;2022-10-28T15:50:26;47.08;;;27.00;;
39968;SDS011;25648;47.808;19.004;2022-10-28T15:55:36;41.88;;;23.58;;
39968;SDS011;25648;47.808;19.004;2022-10-28T15:58:26;38.60;;;23.05;;
39968;SDS011;25648;47.808;19.004;2022-10-28T16:00:57;49.30;;;25.75;;
39968;SDS011;25648;47.808;19.004;2022-10-28T16:05:50;44.63;;;24.33;;
39968;SDS011;25648;47.808;19.004;2022-10-28T16:13:20;40.60;;;23.70;;
39968;SDS011;25648;47.808;19.004;2022-10-28T16:15:53;39.70;;;22.98;;
39968;SDS011;25648;47.808;19.004;2022-10-28T16:18:23;49.95;;;25.35;;
39968;SDS011;25648;47.808;19.004;2022-10-28T16:20:51;39.95;;;24.27;;
39968;SDS011;25648;47.808;19.004;2022-10-28T16:23:18;50.30;;;29.77;;
39968;SDS011;25648;47.808;19.004;2022-10-28T16:25:46;40.33;;;24.17;;
39968;SDS011;25648;47.808;19.004;2022-10-28T16:28:19;53.03;;;31.63;;
39968;SDS011;25648;47.808;19.004;2022-10-28T16:30:54;74.68;;;48.65;;
39968;SDS011;25648;47.808;19.004;2022-10-28T16:33:24;62.65;;;37.50;;
39968;SDS011;25648;47.808;19.004;2022-10-28T16:36:02;62.47;;;35.15;;
39968;SDS011;25648;47.808;19.004;2022-10-28T16:38:29;72.63;;;35.83;;
39968;SDS011;25648;47.808;19.004;2022-10-28T16:40:55;60.10;;;32.83;;
39968;SDS011;25648;47.808;19.004;2022-10-28T16:43:23;73.45;;;36.38;;
39968;SDS011;25648;47.808;19.004;2022-10-28T16:45:50;63.28;;;34.92;;
39968;SDS011;25648;47.808;19.004;2022-10-28T16:48:19;60.17;;;30.65;;
39968;SDS011;25648;47.808;19.004;2022-10-28T16:51:20;54.38;;;31.33;;
39968;SDS011;25648;47.808;19.004;2022-10-28T16:53:41;64.70;;;34.00;;
39968;SDS011;25648;47.808;19.004;2022-10-28T16:56:11;53.47;;;28.83;;
39968;SDS011;25648;47.808;19.004;2022-10-28T16:58:41;56.13;;;31.95;;
39968;SDS011;25648;47.808;19.004;2022-10-28T17:01:07;52.00;;;31.48;;
39968;SDS011;25648;47.808;19.004;2022-10-28T17:03:34;44.38;;;27.05;;
39968;SDS011;25648;47.808;19.004;2022-10-28T17:06:00;50.22;;;29.33;;
39968;SDS011;25648;47.808;19.004;2022-10-28T17:08:25;48.30;;;28.70;;
39968;SDS011;25648;47.808;19.004;2022-10-28T17:10:51;45.95;;;28.02;;
39968;SDS011;25648;47.808;19.004;2022-10-28T17:13:17;52.20;;;28.35;;
39968;SDS011;25648;47.808;19.004;2022-10-28T17:15:42;54.75;;;28.77;;
39968;SDS011;25648;47.808;19.004;2022-10-28T17:18:10;51.15;;;28.75;;
39968;SDS011;25648;47.808;19.004;2022-10-28T17:20:36;57.25;;;31.40;;
39968;SDS011;25648;47.808;19.004;2022-10-28T17:23:03;58.00;;;29.77;;
39968;SDS011;25648;47.808;19.004;2022-10-28T17:25:29;51.10;;;30.25;;
39968;SDS011;25648;47.808;19.004;2022-10-28T17:27:55;53.35;;;29.23;;
39968;SDS011;25648;47.808;19.004;2022-10-28T17:30:20;47.33;;;28.30;;